Time;durP1;ratioP1;P1;durP2;ratioP2;P2;SDS_P1;SDS_P2;PMS_P1;PMS_P2;Temp;Humidity;BMP_temperature;BMP_pressure;BME280_temperature;BME280_humidity;BME280_pressure;Samples;Min_cycle;Max_cycle;Signal;HPM_P1;HPM_P2
2023/10/29 00:00:43;;;;;;;4.60;2.10;;;12.40;99.90;;;;;;4965904;28;20281;-74
2023/10/29 00:03:10;;;;;;;2.70;2.50;;;12.40;99.90;;;;;;4992578;28;20245;-74
2023/10/29 00:05:36;;;;;;;2.37;2.20;;;12.40;99.90;;;;;;4987400;28;20458;-73
2023/10/29 00:08:02;;;;;;;2.97;2.50;;;12.40;99.90;;;;;;4999913;28;20460;-73
2023/10/29 00:10:28;;;;;;;3.73;2.70;;;12.40;99.90;;;;;;4968396;28;20458;-73
2023/10/29 00:12:54;;;;;;;2.93;2.13;;;12.40;99.90;;;;;;5001313;28;20261;-73
2023/10/29 00:15:20;;;;;;;2.20;2.10;;;12.40;99.90;;;;;;4993903;28;20229;-73
2023/10/29 00:17:45;;;;;;;5.83;2.73;;;12.40;99.90;;;;;;5000195;28;20225;-73
2023/10/29 00:20:11;;;;;;;3.80;2.50;;;12.40;99.90;;;;;;4999872;28;20217;-73
2023/10/29 00:22:37;;;;;;;2.43;2.10;;;12.40;99.90;;;;;;4975131;28;20213;-74
2023/10/29 00:25:02;;;;;;;5.83;2.50;;;12.40;99.90;;;;;;4991770;28;20218;-72
2023/10/29 00:27:28;;;;;;;3.87;2.60;;;12.40;99.90;;;;;;4983811;28;20272;-73
2023/10/29 00:29:54;;;;;;;2.33;2.10;;;12.40;99.90;;;;;;5005327;28;20279;-73
2023/10/29 00:32:19;;;;;;;3.43;2.80;;;12.40;99.90;;;;;;4983013;28;20223;-74
2023/10/29 00:34:46;;;;;;;4.03;2.40;;;12.40;99.90;;;;;;4983146;28;20308;-73
2023/10/29 00:37:12;;;;;;;2.77;2.57;;;12.40;99.90;;;;;;4981719;28;20222;-73
2023/10/29 00:39:38;;;;;;;3.00;2.20;;;12.40;99.90;;;;;;4984643;28;21091;-73
2023/10/29 00:42:04;;;;;;;3.63;2.20;;;12.40;99.90;;;;;;4985712;28;20221;-73
2023/10/29 00:44:30;;;;;;;2.50;2.00;;;12.40;99.90;;;;;;4999735;28;20453;-74
2023/10/29 00:46:55;;;;;;;2.43;2.10;;;12.40;99.90;;;;;;4985548;28;20461;-73
2023/10/29 00:49:21;;;;;;;4.90;2.30;;;12.40;99.90;;;;;;4985814;28;20673;-74
2023/10/29 00:51:48;;;;;;;2.37;2.27;;;12.40;99.90;;;;;;4982740;28;20218;-73
2023/10/29 00:54:14;;;;;;;3.10;2.90;;;12.40;99.90;;;;;;4993799;28;20984;-74
2023/10/29 00:56:40;;;;;;;2.47;2.27;;;12.40;99.90;;;;;;4987518;28;20470;-73
2023/10/29 00:59:06;;;;;;;3.33;2.10;;;12.40;99.90;;;;;;4994843;28;20223;-75
2023/10/29 01:01:33;;;;;;;4.23;2.40;;;12.40;99.90;;;;;;4982897;28;20305;-74
2023/10/29 01:03:59;;;;;;;3.10;2.40;;;12.40;99.90;;;;;;4985495;28;20538;-73
2023/10/29 01:06:26;;;;;;;2.40;2.20;;;12.40;99.90;;;;;;4983054;28;20469;-74
2023/10/29 01:08:53;;;;;;;2.30;2.00;;;12.40;99.90;;;;;;4984737;28;20457;-74
2023/10/29 01:11:19;;;;;;;1.83;1.73;;;12.40;99.90;;;;;;4990154;28;20450;-73
2023/10/29 01:13:44;;;;;;;1.97;1.60;;;12.30;99.90;;;;;;5000375;28;21046;-72
2023/10/29 01:16:11;;;;;;;3.60;2.13;;;12.30;99.90;;;;;;4985525;28;20229;-73
2023/10/29 01:18:37;;;;;;;2.40;1.90;;;12.30;99.90;;;;;;4984667;28;20462;-73
2023/10/29 01:21:03;;;;;;;2.10;1.90;;;12.30;99.90;;;;;;5012809;28;20683;-73
2023/10/29 01:23:29;;;;;;;1.73;1.63;;;12.30;99.90;;;;;;4970988;28;20214;-73
2023/10/29 01:25:58;;;;;;;2.00;1.83;;;12.30;99.90;;;;;;4968381;28;20472;-74
2023/10/29 01:28:24;;;;;;;1.43;1.33;;;12.30;99.90;;;;;;4983284;28;20481;-74
2023/10/29 01:30:50;;;;;;;2.03;1.70;;;12.30;99.90;;;;;;4992343;28;20462;-74
2023/10/29 01:33:16;;;;;;;7.53;1.90;;;12.30;99.90;;;;;;5000983;28;20556;-73
2023/10/29 01:35:41;;;;;;;1.83;1.50;;;12.40;99.90;;;;;;4973841;28;20305;-74
2023/10/29 01:38:07;;;;;;;2.17;1.77;;;12.40;99.90;;;;;;4990907;28;20265;-75
2023/10/29 01:40:33;;;;;;;2.57;1.90;;;12.40;99.90;;;;;;4982538;28;20219;-74
2023/10/29 01:42:59;;;;;;;1.40;1.30;;;12.40;99.90;;;;;;4997955;28;20224;-75
2023/10/29 01:45:24;;;;;;;1.70;1.50;;;12.40;99.90;;;;;;4991253;28;20211;-75
2023/10/29 01:47:50;;;;;;;4.63;1.80;;;12.40;99.90;;;;;;5000349;28;20226;-75
2023/10/29 01:50:16;;;;;;;1.20;1.20;;;12.40;99.90;;;;;;4984990;28;20273;-75
2023/10/29 01:52:42;;;;;;;1.43;1.33;;;12.30;99.90;;;;;;4989524;28;20219;-74
2023/10/29 01:55:09;;;;;;;1.47;1.20;;;12.40;99.90;;;;;;4979497;28;20219;-75
2023/10/29 01:57:38;;;;;;;1.60;1.50;;;12.30;99.90;;;;;;4982419;28;20253;-72
2023/10/29 02:00:05;;;;;;;2.00;1.60;;;12.30;99.90;;;;;;4984875;28;20959;-74
2023/10/29 02:02:37;;;;;;;3.00;1.40;;;12.30;99.90;;;;;;5000251;28;20835;-75
2023/10/29 02:05:06;;;;;;;2.83;1.70;;;12.30;99.90;;;;;;4998798;28;20461;-75
2023/10/29 02:07:33;;;;;;;2.37;2.07;;;12.30;99.90;;;;;;4979156;28;20211;-75
2023/10/29 02:09:59;;;;;;;2.17;1.60;;;12.30;99.90;;;;;;5007870;28;20454;-75
2023/10/29 02:12:25;;;;;;;5.37;2.40;;;12.30;99.90;;;;;;4983066;28;20460;-75
2023/10/29 02:14:53;;;;;;;2.50;2.30;;;12.20;99.90;;;;;;5004011;28;20230;-75
2023/10/29 02:17:18;;;;;;;3.30;2.07;;;12.20;99.90;;;;;;4988385;28;20540;-75
2023/10/29 02:19:45;;;;;;;3.50;2.03;;;12.20;99.90;;;;;;4981977;28;20217;-75
2023/10/29 02:22:11;;;;;;;2.20;2.00;;;12.20;99.90;;;;;;4967271;28;20457;-74
2023/10/29 02:24:36;;;;;;;2.07;1.90;;;12.20;99.90;;;;;;4980539;28;20245;-75
2023/10/29 02:27:02;;;;;;;2.80;1.83;;;12.20;99.90;;;;;;4983539;28;20734;-75
2023/10/29 02:29:28;;;;;;;2.20;1.70;;;12.20;99.90;;;;;;4979204;28;20285;-74
2023/10/29 02:31:53;;;;;;;1.93;1.70;;;12.20;99.90;;;;;;4982082;28;20701;-75
2023/10/29 02:34:19;;;;;;;2.63;2.37;;;12.20;99.90;;;;;;4984941;28;20649;-75
2023/10/29 02:36:46;;;;;;;1.90;1.67;;;12.20;99.90;;;;;;4981515;28;20919;-74
2023/10/29 02:39:12;;;;;;;3.27;1.70;;;12.30;99.90;;;;;;4984597;28;20530;-75
2023/10/29 02:41:39;;;;;;;2.90;1.70;;;12.20;99.90;;;;;;4974853;28;20219;-75
2023/10/29 02:44:04;;;;;;;3.47;1.93;;;12.30;99.90;;;;;;4983604;28;20877;-75
2023/10/29 02:46:30;;;;;;;1.87;1.77;;;12.30;99.90;;;;;;4982247;28;20214;-75
2023/10/29 02:48:56;;;;;;;2.20;1.87;;;12.20;99.90;;;;;;4999082;28;20223;-75
2023/10/29 02:51:25;;;;;;;2.03;1.83;;;12.30;99.90;;;;;;4976930;28;20453;-75
2023/10/29 02:53:50;;;;;;;5.37;1.80;;;12.20;99.90;;;;;;4999913;28;20578;-74
2023/10/29 02:56:16;;;;;;;2.57;2.10;;;12.30;99.90;;;;;;4983374;28;20484;-75
2023/10/29 02:58:42;;;;;;;2.67;1.87;;;12.30;99.90;;;;;;4978776;28;20277;-74
2023/10/29 03:01:09;;;;;;;4.37;2.00;;;12.30;99.90;;;;;;4984053;28;20300;-75
2023/10/29 03:03:38;;;;;;;2.00;1.70;;;12.30;99.90;;;;;;5006792;28;20215;-75
2023/10/29 03:06:08;;;;;;;1.50;1.40;;;12.30;99.90;;;;;;5016394;28;20486;-73
2023/10/29 03:08:35;;;;;;;2.13;1.70;;;12.30;99.90;;;;;;4981240;28;20458;-75
2023/10/29 03:11:01;;;;;;;2.90;1.70;;;12.30;99.90;;;;;;4983653;28;21047;-75
2023/10/29 03:13:27;;;;;;;1.90;1.73;;;12.20;99.90;;;;;;4981639;28;20457;-74
2023/10/29 03:15:53;;;;;;;6.97;2.00;;;12.30;99.90;;;;;;4983405;28;20918;-75
2023/10/29 03:18:20;;;;;;;1.70;1.50;;;12.30;99.90;;;;;;4996776;28;20257;-75
2023/10/29 03:20:45;;;;;;;1.70;1.60;;;12.30;99.90;;;;;;4980889;28;20218;-73
2023/10/29 03:23:11;;;;;;;1.80;1.70;;;12.30;99.90;;;;;;5000618;28;20458;-75
2023/10/29 03:25:36;;;;;;;1.53;1.17;;;12.20;99.90;;;;;;4981524;28;20210;-74
2023/10/29 03:28:02;;;;;;;4.20;1.53;;;12.20;99.90;;;;;;4999483;28;20214;-75
2023/10/29 03:30:28;;;;;;;2.00;1.27;;;12.20;99.90;;;;;;4981302;28;20229;-75
2023/10/29 03:32:54;;;;;;;1.30;1.20;;;12.20;99.90;;;;;;4982807;28;20231;-74
2023/10/29 03:35:19;;;;;;;1.70;1.47;;;12.20;99.90;;;;;;4983437;28;20230;-74
2023/10/29 03:37:45;;;;;;;1.97;1.30;;;12.20;99.90;;;;;;4980597;28;20218;-74
2023/10/29 03:40:11;;;;;;;2.40;1.50;;;12.30;99.90;;;;;;4983630;28;20215;-75
2023/10/29 03:42:36;;;;;;;2.53;1.20;;;12.30;99.90;;;;;;4981556;28;20215;-75
2023/10/29 03:45:03;;;;;;;1.53;1.27;;;12.30;99.90;;;;;;4983626;28;20692;-75
2023/10/29 03:47:29;;;;;;;1.80;1.60;;;12.30;99.90;;;;;;5013011;28;20280;-74
2023/10/29 03:49:55;;;;;;;3.00;1.23;;;12.30;99.90;;;;;;4982828;28;20556;-75
2023/10/29 03:52:22;;;;;;;1.90;1.30;;;12.30;99.90;;;;;;5016439;28;20218;-74
2023/10/29 03:54:48;;;;;;;3.77;1.47;;;12.30;99.90;;;;;;4981097;28;20469;-73
2023/10/29 03:57:14;;;;;;;1.30;1.20;;;12.30;99.90;;;;;;4999789;28;20484;-74
2023/10/29 03:59:40;;;;;;;1.30;1.10;;;12.30;99.90;;;;;;4981488;28;20553;-72
2023/10/29 04:02:06;;;;;;;1.40;1.30;;;12.30;99.90;;;;;;4983074;28;20219;-75
2023/10/29 04:04:32;;;;;;;0.90;0.90;;;12.30;99.90;;;;;;4980770;28;20472;-74
2023/10/29 04:06:58;;;;;;;3.87;1.70;;;12.30;99.90;;;;;;4982646;28;20458;-74
2023/10/29 04:09:24;;;;;;;1.43;1.20;;;12.30;99.90;;;;;;4981001;28;20990;-74
2023/10/29 04:11:50;;;;;;;1.80;1.30;;;12.30;99.90;;;;;;4998538;28;20226;-74
2023/10/29 04:14:15;;;;;;;1.50;1.10;;;12.30;99.90;;;;;;4984743;28;20219;-74
2023/10/29 04:16:41;;;;;;;9.50;1.43;;;12.30;99.90;;;;;;4985663;28;20211;-75
2023/10/29 04:19:07;;;;;;;1.30;1.20;;;12.30;99.90;;;;;;4989768;28;20465;-75
2023/10/29 04:21:33;;;;;;;1.47;1.20;;;12.30;99.90;;;;;;4986507;28;20218;-75
2023/10/29 04:23:58;;;;;;;3.40;1.30;;;12.30;99.90;;;;;;4986001;28;20728;-75
2023/10/29 04:26:24;;;;;;;2.50;1.47;;;12.40;99.90;;;;;;4989226;28;20301;-74
2023/10/29 04:28:50;;;;;;;1.60;1.50;;;12.40;99.90;;;;;;4985254;28;20724;-74
2023/10/29 04:31:15;;;;;;;2.53;1.33;;;12.40;99.90;;;;;;4986597;28;20221;-75
2023/10/29 04:33:45;;;;;;;1.50;1.40;;;12.40;99.90;;;;;;5017023;28;20246;-75
2023/10/29 04:36:18;;;;;;;1.63;1.43;;;12.40;99.90;;;;;;4985899;28;20222;-74
2023/10/29 04:38:44;;;;;;;2.50;1.10;;;12.40;99.90;;;;;;4985107;28;20485;-74
2023/10/29 04:41:10;;;;;;;1.40;1.30;;;12.40;99.90;;;;;;4986537;28;20512;-74
2023/10/29 04:43:35;;;;;;;1.77;1.60;;;12.40;99.90;;;;;;5016675;28;20665;-75
2023/10/29 04:46:01;;;;;;;2.70;1.40;;;12.40;99.90;;;;;;4986494;28;20356;-75
2023/10/29 04:48:27;;;;;;;1.63;1.53;;;12.40;99.90;;;;;;4984785;28;20281;-74
2023/10/29 04:50:52;;;;;;;1.33;1.20;;;12.50;99.90;;;;;;4986145;28;20306;-74
2023/10/29 04:53:18;;;;;;;1.27;1.17;;;12.50;99.90;;;;;;4986293;28;20597;-75
2023/10/29 04:55:44;;;;;;;2.13;1.70;;;12.50;99.90;;;;;;4983090;28;20241;-74
2023/10/29 04:58:09;;;;;;;3.00;1.27;;;12.50;99.90;;;;;;4986460;28;20219;-75
2023/10/29 05:00:35;;;;;;;4.27;1.53;;;12.50;99.90;;;;;;4985940;28;20223;-74
2023/10/29 05:03:01;;;;;;;2.10;1.50;;;12.50;99.90;;;;;;5000123;28;20221;-75
2023/10/29 05:05:26;;;;;;;1.70;1.40;;;12.50;99.90;;;;;;4986780;28;20382;-74
2023/10/29 05:07:52;;;;;;;3.80;1.40;;;12.50;99.90;;;;;;4971951;28;20246;-74
2023/10/29 05:10:18;;;;;;;1.70;1.60;;;12.50;99.90;;;;;;4985982;28;20225;-75
2023/10/29 05:12:43;;;;;;;3.53;1.37;;;12.50;99.90;;;;;;4983768;28;20230;-74
2023/10/29 05:15:12;;;;;;;1.53;1.43;;;12.50;99.90;;;;;;5001568;28;20238;-75
2023/10/29 05:17:38;;;;;;;1.97;1.53;;;12.50;99.90;;;;;;4983471;28;20218;-74
2023/10/29 05:20:04;;;;;;;2.67;1.77;;;12.50;99.90;;;;;;4984202;28;21056;-74
2023/10/29 05:22:30;;;;;;;1.60;1.20;;;12.50;99.90;;;;;;4983595;28;20218;-75
2023/10/29 05:24:56;;;;;;;1.10;1.10;;;12.50;99.90;;;;;;4984235;28;20812;-74
2023/10/29 05:27:21;;;;;;;1.80;1.70;;;12.50;99.90;;;;;;5002390;28;20662;-74
2023/10/29 05:29:47;;;;;;;3.57;1.40;;;12.50;99.90;;;;;;4981023;28;20234;-74
2023/10/29 05:32:13;;;;;;;1.50;1.40;;;12.50;99.90;;;;;;4985342;28;20218;-74
2023/10/29 05:34:39;;;;;;;2.87;1.20;;;12.50;99.90;;;;;;4965940;28;20237;-74
2023/10/29 05:37:04;;;;;;;2.13;1.30;;;12.50;99.90;;;;;;4983561;28;20314;-74
2023/10/29 05:39:30;;;;;;;1.93;1.60;;;12.50;99.90;;;;;;4983618;28;20465;-74
2023/10/29 05:41:56;;;;;;;6.67;1.90;;;12.60;99.90;;;;;;4984676;28;20268;-74
2023/10/29 05:44:24;;;;;;;2.33;1.43;;;12.50;99.90;;;;;;4986030;28;20222;-74
2023/10/29 05:46:50;;;;;;;1.60;1.50;;;12.50;99.90;;;;;;5004880;28;20226;-75
2023/10/29 05:49:15;;;;;;;1.47;1.37;;;12.50;99.90;;;;;;5021301;28;20460;-74
2023/10/29 05:51:41;;;;;;;3.53;1.40;;;12.60;99.90;;;;;;5003835;28;20614;-74
2023/10/29 05:54:07;;;;;;;2.13;1.53;;;12.60;99.90;;;;;;5004581;28;20292;-74
2023/10/29 05:56:33;;;;;;;2.90;1.50;;;12.60;99.90;;;;;;4986136;28;20319;-74
2023/10/29 05:58:58;;;;;;;1.07;1.00;;;12.60;99.90;;;;;;5003876;28;20218;-75
2023/10/29 06:01:24;;;;;;;4.23;1.57;;;12.60;99.90;;;;;;5004740;28;20718;-75
2023/10/29 06:03:49;;;;;;;1.90;1.27;;;12.60;99.90;;;;;;5005014;28;20237;-74
2023/10/29 06:06:15;;;;;;;2.10;1.20;;;12.50;99.90;;;;;;5002797;28;20226;-75
2023/10/29 06:08:41;;;;;;;2.13;1.33;;;12.60;99.90;;;;;;5015017;28;20210;-73
2023/10/29 06:11:06;;;;;;;1.27;1.17;;;12.60;99.90;;;;;;5004353;28;20301;-74
2023/10/29 06:13:32;;;;;;;1.57;1.30;;;12.60;99.90;;;;;;5001634;28;20564;-74
2023/10/29 06:15:58;;;;;;;2.07;1.47;;;12.60;99.90;;;;;;5003839;28;20240;-75
2023/10/29 06:18:23;;;;;;;1.50;1.40;;;12.60;99.90;;;;;;5004883;28;20226;-74
2023/10/29 06:20:52;;;;;;;1.13;1.03;;;12.60;99.90;;;;;;4985876;28;20305;-74
2023/10/29 06:23:18;;;;;;;1.53;1.37;;;12.60;99.90;;;;;;5013602;28;20226;-74
2023/10/29 06:25:43;;;;;;;1.17;1.13;;;12.60;99.90;;;;;;5001340;28;20456;-74
2023/10/29 06:28:09;;;;;;;2.83;1.30;;;12.60;99.90;;;;;;5003955;28;20218;-74
2023/10/29 06:30:35;;;;;;;1.40;1.30;;;12.60;99.90;;;;;;5001712;28;20232;-75
2023/10/29 06:33:01;;;;;;;1.23;1.13;;;12.60;99.90;;;;;;4987208;28;20218;-75
2023/10/29 06:35:27;;;;;;;1.07;1.07;;;12.60;99.90;;;;;;5003219;28;20267;-74
2023/10/29 06:37:53;;;;;;;2.07;1.10;;;12.60;99.90;;;;;;5003485;28;20460;-75
2023/10/29 06:40:19;;;;;;;1.23;0.80;;;12.60;99.90;;;;;;5003548;28;20460;-75
2023/10/29 06:42:45;;;;;;;2.00;1.30;;;12.70;99.90;;;;;;4998494;28;20266;-73
2023/10/29 06:45:11;;;;;;;1.90;1.53;;;12.60;99.90;;;;;;4987775;28;20534;-75
2023/10/29 06:47:37;;;;;;;1.30;1.20;;;12.60;99.90;;;;;;4985429;28;20222;-75
2023/10/29 06:50:03;;;;;;;2.40;1.23;;;12.60;99.90;;;;;;5002633;28;20241;-76
2023/10/29 06:52:28;;;;;;;2.00;1.40;;;12.60;99.90;;;;;;5001281;28;20226;-75
2023/10/29 06:54:54;;;;;;;1.73;1.10;;;12.60;99.90;;;;;;4998086;28;20469;-74
2023/10/29 06:57:20;;;;;;;1.57;1.20;;;12.60;99.90;;;;;;4969361;28;20612;-74
2023/10/29 06:59:45;;;;;;;1.33;1.20;;;12.60;99.90;;;;;;4989902;28;20242;-75
2023/10/29 07:02:11;;;;;;;2.00;1.23;;;12.60;99.90;;;;;;4984338;28;20249;-73
2023/10/29 07:04:37;;;;;;;1.23;1.13;;;12.60;99.90;;;;;;4981950;28;20215;-74
2023/10/29 07:07:03;;;;;;;2.40;1.90;;;12.60;99.90;;;;;;4999029;28;21011;-75
2023/10/29 07:09:29;;;;;;;2.43;1.47;;;12.70;99.90;;;;;;4981359;28;20226;-74
2023/10/29 07:11:55;;;;;;;1.27;1.17;;;12.70;99.90;;;;;;4998815;28;20268;-74
2023/10/29 07:14:21;;;;;;;1.70;1.60;;;12.70;99.90;;;;;;4999152;28;20219;-75
2023/10/29 07:16:47;;;;;;;1.07;1.07;;;12.70;99.90;;;;;;4982524;28;20822;-74
2023/10/29 07:19:14;;;;;;;1.27;1.23;;;12.70;99.90;;;;;;4977409;28;20214;-75
2023/10/29 07:21:40;;;;;;;1.27;1.17;;;12.70;99.90;;;;;;4996847;28;20887;-75
2023/10/29 07:24:06;;;;;;;1.33;1.23;;;12.70;99.90;;;;;;4983466;28;20453;-75
2023/10/29 07:26:33;;;;;;;1.30;1.20;;;12.70;99.90;;;;;;4978140;28;20980;-75
2023/10/29 07:28:59;;;;;;;1.20;1.10;;;12.70;99.90;;;;;;4965989;28;20459;-75
2023/10/29 07:31:25;;;;;;;1.27;1.13;;;12.70;99.90;;;;;;5013072;28;20461;-75
2023/10/29 07:33:52;;;;;;;2.17;1.27;;;12.70;99.90;;;;;;4999818;28;20453;-75
2023/10/29 07:36:21;;;;;;;1.30;1.20;;;12.80;99.90;;;;;;4982353;28;20527;-74
2023/10/29 07:38:47;;;;;;;1.80;1.50;;;12.80;99.90;;;;;;4982689;28;20454;-74
2023/10/29 07:41:20;;;;;;;1.70;1.60;;;12.80;99.90;;;;;;4982707;28;20521;-75
2023/10/29 07:43:47;;;;;;;6.13;1.60;;;12.80;99.90;;;;;;4980826;28;20457;-75
2023/10/29 07:46:13;;;;;;;2.53;1.83;;;12.80;99.90;;;;;;4982108;28;20458;-75
2023/10/29 07:48:39;;;;;;;2.10;1.73;;;12.80;99.90;;;;;;4996187;28;20484;-76
2023/10/29 07:51:05;;;;;;;1.60;1.50;;;12.80;99.90;;;;;;4987107;28;20213;-76
2023/10/29 07:53:31;;;;;;;2.10;1.30;;;12.90;99.90;;;;;;4983795;28;20827;-76
2023/10/29 07:56:08;;;;;;;1.83;1.73;;;12.80;99.90;;;;;;4988520;28;20727;-75
2023/10/29 07:58:34;;;;;;;3.63;1.63;;;12.90;99.90;;;;;;4983334;28;20214;-76
2023/10/29 08:00:59;;;;;;;1.50;1.40;;;12.90;99.90;;;;;;4983708;28;20462;-75
2023/10/29 08:03:25;;;;;;;1.93;1.67;;;12.90;99.90;;;;;;4986105;28;20672;-75
2023/10/29 08:05:52;;;;;;;1.27;1.27;;;13.00;99.90;;;;;;5003633;28;20222;-76
2023/10/29 08:08:18;;;;;;;4.53;1.43;;;12.90;99.90;;;;;;4997759;28;20218;-75
2023/10/29 08:10:44;;;;;;;2.47;2.00;;;13.00;99.90;;;;;;4983293;28;20540;-76
2023/10/29 08:13:10;;;;;;;1.87;1.60;;;13.00;99.90;;;;;;4985746;28;20273;-75
2023/10/29 08:15:39;;;;;;;1.60;1.50;;;13.00;99.90;;;;;;4983826;28;20889;-75
2023/10/29 08:18:04;;;;;;;5.13;1.83;;;13.00;99.90;;;;;;4991224;28;20448;-75
2023/10/29 08:20:31;;;;;;;1.63;1.40;;;13.10;99.90;;;;;;4986005;28;20466;-76
2023/10/29 08:22:57;;;;;;;2.17;1.93;;;13.20;99.90;;;;;;4985465;28;20693;-75
2023/10/29 08:25:22;;;;;;;1.93;1.73;;;13.20;99.90;;;;;;4980558;28;20467;-75
2023/10/29 08:27:48;;;;;;;2.50;1.57;;;13.20;99.90;;;;;;4981448;28;20277;-75
2023/10/29 08:30:14;;;;;;;2.13;1.60;;;13.20;99.90;;;;;;4991264;28;20214;-75
2023/10/29 08:32:39;;;;;;;3.10;2.27;;;13.30;99.90;;;;;;4988178;28;20249;-75
2023/10/29 08:35:08;;;;;;;3.67;1.83;;;13.30;99.90;;;;;;4981206;28;20245;-75
2023/10/29 08:37:37;;;;;;;7.33;1.70;;;13.30;99.90;;;;;;4982713;28;20692;-75
2023/10/29 08:40:03;;;;;;;1.77;1.67;;;13.30;99.90;;;;;;4987505;28;20584;-75
2023/10/29 08:42:30;;;;;;;1.80;1.70;;;13.40;99.90;;;;;;4993302;28;20455;-75
2023/10/29 08:44:56;;;;;;;1.67;1.43;;;13.40;99.90;;;;;;5005585;28;20878;-75
2023/10/29 08:47:23;;;;;;;3.03;1.83;;;13.40;99.90;;;;;;4985902;28;20567;-75
2023/10/29 08:49:49;;;;;;;1.70;1.60;;;13.50;99.90;;;;;;4989226;28;20534;-75
2023/10/29 08:52:15;;;;;;;1.93;1.77;;;13.50;99.90;;;;;;4983333;28;20458;-75
2023/10/29 08:54:41;;;;;;;2.27;1.63;;;13.50;99.90;;;;;;4984617;28;20488;-76
2023/10/29 08:57:06;;;;;;;1.30;1.20;;;13.50;99.90;;;;;;4985398;28;20214;-75
2023/10/29 08:59:32;;;;;;;1.77;1.57;;;13.60;99.90;;;;;;4984269;28;20293;-75
2023/10/29 09:01:58;;;;;;;1.27;1.17;;;13.60;99.90;;;;;;4998433;28;20365;-75
2023/10/29 09:04:23;;;;;;;1.53;1.43;;;13.50;99.90;;;;;;4988634;28;20222;-75
2023/10/29 09:06:49;;;;;;;3.50;2.30;;;13.50;99.90;;;;;;4977660;28;20222;-75
2023/10/29 09:09:15;;;;;;;2.10;1.70;;;13.50;99.90;;;;;;4989568;28;20711;-75
2023/10/29 09:11:43;;;;;;;2.87;1.50;;;13.50;99.90;;;;;;4979154;28;20588;-76
2023/10/29 09:14:11;;;;;;;3.90;1.90;;;13.50;99.90;;;;;;4983165;28;20207;-75
2023/10/29 09:16:36;;;;;;;2.87;1.60;;;13.60;99.90;;;;;;4991079;28;20477;-76
2023/10/29 09:19:03;;;;;;;3.30;1.37;;;13.50;99.90;;;;;;4985317;28;20458;-75
2023/10/29 09:21:29;;;;;;;1.50;1.40;;;13.60;99.90;;;;;;5000882;28;20213;-76
2023/10/29 09:23:54;;;;;;;2.43;1.33;;;13.60;99.90;;;;;;4985177;28;20797;-75
2023/10/29 09:26:20;;;;;;;1.73;1.23;;;13.60;99.90;;;;;;4967094;28;20460;-76
2023/10/29 09:28:46;;;;;;;1.40;1.30;;;13.60;99.90;;;;;;4982434;28;20222;-75
2023/10/29 09:31:16;;;;;;;2.27;1.40;;;13.60;99.90;;;;;;4969051;28;20301;-76
2023/10/29 09:33:42;;;;;;;2.80;1.37;;;13.60;99.90;;;;;;4984249;28;20693;-76
2023/10/29 09:36:08;;;;;;;1.43;1.10;;;13.60;99.90;;;;;;5015193;28;20523;-76
2023/10/29 09:38:34;;;;;;;1.50;1.40;;;13.60;99.90;;;;;;4979372;28;20298;-76
2023/10/29 09:40:59;;;;;;;1.73;1.57;;;13.60;99.90;;;;;;4997778;28;20775;-75
2023/10/29 09:43:37;;;;;;;2.23;1.60;;;13.60;99.90;;;;;;4983053;28;20704;-76
2023/10/29 09:46:05;;;;;;;1.43;1.30;;;13.70;99.90;;;;;;4983251;28;20215;-76
2023/10/29 09:48:33;;;;;;;1.73;1.63;;;13.70;99.90;;;;;;4982772;28;20458;-75
2023/10/29 09:51:04;;;;;;;1.43;1.33;;;13.70;99.90;;;;;;4985837;28;20497;-76
2023/10/29 09:53:31;;;;;;;1.43;1.00;;;13.70;99.90;;;;;;4981546;28;20457;-75
2023/10/29 09:55:58;;;;;;;1.77;1.30;;;13.70;99.90;;;;;;5000011;28;20500;-76
2023/10/29 09:58:26;;;;;;;1.80;1.30;;;13.70;99.90;;;;;;4984645;28;20466;-76
2023/10/29 10:00:52;;;;;;;2.30;1.37;;;13.70;99.90;;;;;;4968805;28;20512;-75
2023/10/29 10:03:18;;;;;;;1.27;1.17;;;13.80;99.90;;;;;;4984142;28;20541;-75
2023/10/29 10:05:46;;;;;;;1.40;1.30;;;13.80;99.90;;;;;;4982840;28;20458;-77
2023/10/29 10:08:12;;;;;;;1.70;1.40;;;13.70;99.90;;;;;;4976821;28;20457;-75
2023/10/29 10:10:42;;;;;;;3.03;1.67;;;13.90;99.90;;;;;;4979228;28;20454;-76
2023/10/29 10:13:09;;;;;;;1.97;1.77;;;13.90;99.90;;;;;;4988960;28;20256;-75
2023/10/29 10:15:39;;;;;;;1.17;1.10;;;14.00;99.90;;;;;;4984693;28;20468;-76
2023/10/29 10:18:05;;;;;;;1.90;1.43;;;14.00;99.90;;;;;;4988882;28;20502;-76
2023/10/29 10:20:32;;;;;;;2.27;1.30;;;14.00;99.90;;;;;;4992267;28;20486;-75
2023/10/29 10:23:02;;;;;;;1.30;1.20;;;14.10;99.90;;;;;;5001627;28;20540;-75
2023/10/29 10:25:29;;;;;;;1.53;1.43;;;14.00;99.90;;;;;;4996321;28;20449;-76
2023/10/29 10:27:57;;;;;;;1.80;1.47;;;14.00;99.90;;;;;;4983940;28;20454;-75
2023/10/29 10:30:31;;;;;;;4.13;1.23;;;14.00;99.90;;;;;;4983702;28;20573;-76
2023/10/29 10:33:17;;;;;;;2.30;1.57;;;14.00;99.90;;;;;;5002474;28;20452;-76
2023/10/29 10:35:52;;;;;;;1.97;1.70;;;14.10;99.90;;;;;;4978630;28;20504;-76
2023/10/29 10:38:22;;;;;;;1.10;1.00;;;14.10;99.90;;;;;;4967401;28;20454;-76
2023/10/29 10:40:58;;;;;;;1.30;1.23;;;14.00;99.90;;;;;;4989017;28;20453;-76
2023/10/29 10:43:24;;;;;;;1.40;1.30;;;14.10;99.90;;;;;;4983208;28;20468;-75
2023/10/29 10:45:51;;;;;;;1.20;1.10;;;14.10;99.90;;;;;;4966243;28;20449;-75
2023/10/29 10:48:17;;;;;;;1.50;1.30;;;14.10;99.90;;;;;;4983983;28;20446;-76
2023/10/29 10:50:43;;;;;;;1.00;1.00;;;14.00;99.90;;;;;;4980652;28;20531;-76
2023/10/29 10:53:10;;;;;;;1.50;1.30;;;14.10;99.90;;;;;;4999215;28;20453;-76
2023/10/29 10:55:37;;;;;;;0.80;0.80;;;14.00;99.90;;;;;;4982160;28;20558;-76
2023/10/29 10:58:04;;;;;;;1.17;1.07;;;14.10;99.90;;;;;;4984066;28;20476;-76
2023/10/29 11:00:34;;;;;;;1.83;1.20;;;14.10;99.90;;;;;;4981831;28;20504;-76
2023/10/29 11:03:01;;;;;;;1.97;1.03;;;14.10;99.90;;;;;;5015737;28;20445;-75
2023/10/29 11:05:30;;;;;;;1.20;1.10;;;14.10;99.90;;;;;;4980409;28;20454;-76
2023/10/29 11:07:57;;;;;;;1.23;1.13;;;14.10;99.90;;;;;;4983170;28;20465;-76
2023/10/29 11:10:25;;;;;;;1.03;1.00;;;14.10;99.90;;;;;;5016367;28;20458;-75
2023/10/29 11:12:51;;;;;;;1.10;1.00;;;14.10;99.90;;;;;;4998828;28;20465;-75
2023/10/29 11:15:23;;;;;;;0.90;0.90;;;14.10;99.90;;;;;;4983175;28;20497;-75
2023/10/29 11:17:55;;;;;;;1.50;1.10;;;14.10;99.90;;;;;;4983051;28;20982;-75
2023/10/29 11:20:49;;;;;;;1.40;1.30;;;14.10;99.90;;;;;;5002640;28;20545;-76
2023/10/29 11:23:21;;;;;;;1.27;1.17;;;14.10;99.90;;;;;;5000123;28;20946;-76
2023/10/29 11:25:47;;;;;;;0.80;0.80;;;14.10;99.90;;;;;;4993733;28;20533;-75
2023/10/29 11:28:24;;;;;;;0.97;0.90;;;14.10;99.90;;;;;;4993393;28;20536;-76
2023/10/29 11:31:16;;;;;;;1.10;1.00;;;14.10;99.90;;;;;;5008526;28;20221;-75
2023/10/29 11:33:43;;;;;;;1.73;0.90;;;14.10;99.90;;;;;;4982397;28;20546;-76
2023/10/29 11:36:34;;;;;;;2.10;1.37;;;14.00;99.90;;;;;;5003491;28;20473;-76
2023/10/29 11:39:15;;;;;;;0.87;0.80;;;14.00;99.90;;;;;;4994141;28;20600;-76
2023/10/29 11:41:48;;;;;;;1.20;0.83;;;14.00;99.90;;;;;;5001135;28;20521;-76
2023/10/29 11:44:32;;;;;;;0.77;0.77;;;14.00;99.90;;;;;;4987171;28;20458;-75
2023/10/29 11:46:58;;;;;;;3.80;0.90;;;14.00;99.90;;;;;;5003547;28;20556;-75
2023/10/29 11:49:28;;;;;;;1.20;0.93;;;14.00;99.90;;;;;;4970278;28;20549;-75
2023/10/29 11:52:01;;;;;;;1.20;1.10;;;14.00;99.90;;;;;;5001971;28;20272;-75
2023/10/29 11:54:34;;;;;;;0.70;0.70;;;14.00;99.90;;;;;;4992201;28;20504;-76
2023/10/29 11:57:00;;;;;;;0.70;0.70;;;13.90;99.90;;;;;;4992245;28;21026;-75
2023/10/29 11:59:26;;;;;;;2.10;0.90;;;13.90;99.90;;;;;;4983636;28;20468;-75
2023/10/29 12:01:53;;;;;;;1.43;1.20;;;13.90;99.90;;;;;;4988047;28;20449;-75
2023/10/29 12:04:19;;;;;;;1.37;1.10;;;13.90;99.90;;;;;;4985355;28;20209;-76
2023/10/29 12:06:48;;;;;;;1.20;0.90;;;13.90;99.90;;;;;;4988867;28;20468;-75
2023/10/29 12:09:15;;;;;;;1.87;1.10;;;13.90;99.90;;;;;;5004504;28;20818;-75
2023/10/29 12:11:40;;;;;;;1.97;1.03;;;13.90;99.90;;;;;;4983797;28;20454;-76
2023/10/29 12:14:06;;;;;;;1.27;1.00;;;13.90;99.90;;;;;;4993028;28;20905;-76
2023/10/29 12:16:32;;;;;;;0.80;0.77;;;13.80;99.90;;;;;;5002803;28;20230;-75
2023/10/29 12:18:58;;;;;;;0.97;0.87;;;13.80;99.90;;;;;;4989962;28;20229;-75
2023/10/29 12:21:23;;;;;;;4.10;1.37;;;13.80;99.90;;;;;;5005519;28;20229;-75
2023/10/29 12:23:49;;;;;;;0.60;0.60;;;13.80;99.90;;;;;;4983019;28;20260;-75
2023/10/29 12:26:15;;;;;;;0.97;0.87;;;13.80;99.90;;;;;;4992818;28;20225;-75
2023/10/29 12:28:42;;;;;;;1.37;1.27;;;13.80;99.90;;;;;;4985968;28;20234;-76
2023/10/29 12:31:27;;;;;;;2.57;1.13;;;13.80;99.90;;;;;;4986070;28;20217;-76
2023/10/29 12:33:57;;;;;;;0.83;0.73;;;13.80;99.90;;;;;;4974439;28;20511;-75
2023/10/29 12:36:23;;;;;;;0.97;0.87;;;13.80;99.90;;;;;;4985842;28;20979;-75
2023/10/29 12:38:50;;;;;;;0.60;0.50;;;13.70;99.90;;;;;;4982879;28;20449;-75
2023/10/29 12:41:16;;;;;;;0.70;0.70;;;13.70;99.90;;;;;;4984823;28;20887;-75
2023/10/29 12:43:47;;;;;;;0.87;0.87;;;13.70;99.90;;;;;;4982189;28;20461;-75
2023/10/29 12:46:14;;;;;;;3.67;1.10;;;13.70;99.90;;;;;;4997076;28;20469;-75